createdAt,value
2023-04-24T00:00:04.249Z,15.80
2023-04-24T00:02:08.119Z,15.70
2023-04-24T00:04:12.153Z,15.80
2023-04-24T00:06:15.176Z,15.70
2023-04-24T00:08:17.979Z,15.60
2023-04-24T00:10:23.911Z,15.50
2023-04-24T00:12:27.839Z,15.60
2023-04-24T00:14:30.601Z,15.60
2023-04-24T00:16:34.871Z,15.60
2023-04-24T00:18:37.701Z,15.60
2023-04-24T00:20:40.845Z,15.60
2023-04-24T00:22:43.701Z,15.60
2023-04-24T00:24:46.611Z,15.60
2023-04-24T00:26:49.686Z,15.70
2023-04-24T00:28:52.501Z,15.70
2023-04-24T00:30:56.348Z,15.80
2023-04-24T00:33:00.808Z,15.80
2023-04-24T00:35:04.374Z,15.70
2023-04-24T00:37:07.191Z,15.70
2023-04-24T00:39:10.887Z,15.60
2023-04-24T00:41:13.824Z,15.60
2023-04-24T00:43:18.946Z,15.50
2023-04-24T00:45:22.355Z,15.50
2023-04-24T00:47:25.758Z,15.50
2023-04-24T00:49:29.930Z,15.50
2023-04-24T00:51:33.759Z,15.40
2023-04-24T00:53:36.601Z,15.40
2023-04-24T00:55:39.353Z,15.40
2023-04-24T00:57:42.379Z,15.40
2023-04-24T00:59:45.983Z,15.40
2023-04-24T01:01:49.411Z,15.40
2023-04-24T01:03:55.774Z,15.40
2023-04-24T01:06:00.343Z,15.40
2023-04-24T01:08:04.575Z,15.40
2023-04-24T01:12:25.949Z,15.40
2023-04-24T01:14:28.916Z,15.40
2023-04-24T01:16:31.807Z,15.30
2023-04-24T01:18:34.676Z,15.20
2023-04-24T01:20:40.898Z,15.20
2023-04-24T01:22:45.456Z,15.30
2023-04-24T01:24:48.480Z,15.30
2023-04-24T01:26:51.510Z,15.20
2023-04-24T01:28:55.071Z,15.20
2023-04-24T01:30:58.291Z,15.20
2023-04-24T01:33:01.488Z,15.20
2023-04-24T01:35:04.969Z,15.10
2023-04-24T01:37:07.916Z,15.10
2023-04-24T01:39:12.333Z,15.10
2023-04-24T01:41:15.381Z,15.10
2023-04-24T01:43:18.379Z,15.10
2023-04-24T01:45:21.246Z,15.10
2023-04-24T01:47:24.321Z,15.10
2023-04-24T01:49:27.151Z,15.10
2023-04-24T01:51:29.988Z,15.10
2023-04-24T01:53:32.884Z,15.00
2023-04-24T01:55:37.358Z,15.00
2023-04-24T01:57:40.627Z,15.00
2023-04-24T01:59:43.626Z,14.90
2023-04-24T02:01:46.588Z,14.90
2023-04-24T02:03:49.871Z,14.90
2023-04-24T02:05:52.677Z,14.80
2023-04-24T02:07:55.657Z,14.80
2023-04-24T02:09:58.439Z,14.70
2023-04-24T02:12:02.714Z,14.80
2023-04-24T02:14:05.620Z,14.70
2023-04-24T02:16:08.411Z,14.70
2023-04-24T02:18:13.816Z,14.70
2023-04-24T02:20:20.764Z,14.70
2023-04-24T02:22:23.639Z,14.70
2023-04-24T02:24:26.632Z,14.70
2023-04-24T02:26:29.445Z,14.70
2023-04-24T02:28:33.529Z,14.70
2023-04-24T02:30:36.507Z,14.70
2023-04-24T02:32:39.978Z,14.70
2023-04-24T02:34:43.052Z,14.70
2023-04-24T02:36:45.826Z,14.70
2023-04-24T02:38:48.651Z,14.60
2023-04-24T02:40:51.897Z,14.60
2023-04-24T02:42:54.695Z,14.60
2023-04-24T02:44:59.482Z,14.60
2023-04-24T02:47:02.300Z,14.60
2023-04-24T02:49:05.382Z,14.50
2023-04-24T02:51:08.669Z,14.50
2023-04-24T02:53:12.099Z,14.60
2023-04-24T02:55:14.991Z,14.60
2023-04-24T02:57:17.819Z,14.70
2023-04-24T02:59:20.592Z,14.60
2023-04-24T03:01:24.714Z,14.70
2023-04-24T03:03:27.617Z,14.60
2023-04-24T03:05:31.766Z,14.60
2023-04-24T03:07:34.580Z,14.60
2023-04-24T03:09:37.390Z,14.60
2023-04-24T03:11:40.690Z,14.60
2023-04-24T03:13:43.558Z,14.50
2023-04-24T03:15:47.838Z,14.50
2023-04-24T03:17:52.983Z,14.50
2023-04-24T03:19:57.030Z,14.50
2023-04-24T03:21:59.977Z,14.60
2023-04-24T03:24:03.393Z,14.60
2023-04-24T03:26:06.729Z,14.70
2023-04-24T03:28:09.503Z,14.70
2023-04-24T03:30:11.768Z,14.70
2023-04-24T03:32:14.523Z,14.70
2023-04-24T03:34:18.735Z,14.70
2023-04-24T03:36:21.525Z,14.80
2023-04-24T03:38:24.565Z,14.80
2023-04-24T03:40:27.563Z,14.90
2023-04-24T03:42:30.337Z,14.90
2023-04-24T03:44:33.374Z,14.90
2023-04-24T03:46:36.601Z,14.80
2023-04-24T03:48:39.438Z,14.80
2023-04-24T03:50:43.822Z,14.80
2023-04-24T03:52:46.908Z,14.80
2023-04-24T03:54:49.974Z,14.80
2023-04-24T03:56:52.993Z,14.80
2023-04-24T03:58:56.327Z,14.90
2023-04-24T04:01:01.113Z,14.90
2023-04-24T04:03:04.366Z,14.80
2023-04-24T04:05:07.836Z,14.90
2023-04-24T04:07:12.239Z,14.90
2023-04-24T04:09:15.185Z,14.90
2023-04-24T04:11:18.000Z,15.00
2023-04-24T04:13:21.117Z,15.00
2023-04-24T04:15:23.887Z,15.00
2023-04-24T04:17:27.246Z,15.10
2023-04-24T04:19:30.033Z,15.20
2023-04-24T04:21:33.205Z,15.20
2023-04-24T04:23:37.513Z,15.20
2023-04-24T04:25:40.259Z,15.30
2023-04-24T04:27:43.186Z,15.20
2023-04-24T04:29:46.377Z,15.30
2023-04-24T04:31:49.137Z,15.30
2023-04-24T04:33:51.921Z,15.40
2023-04-24T04:35:54.711Z,15.40
2023-04-24T04:37:59.949Z,15.40
2023-04-24T04:40:07.521Z,15.40
2023-04-24T04:42:10.599Z,15.50
2023-04-24T04:44:14.041Z,15.50
2023-04-24T04:46:17.229Z,15.50
2023-04-24T04:48:20.639Z,15.50
2023-04-24T04:50:24.180Z,15.50
2023-04-24T04:52:27.624Z,15.60
2023-04-24T04:54:30.424Z,15.50
2023-04-24T04:56:34.751Z,15.50
2023-04-24T04:58:37.547Z,15.50
2023-04-24T05:00:40.844Z,15.50
2023-04-24T05:02:44.030Z,15.60
2023-04-24T05:04:47.279Z,15.60
2023-04-24T05:06:52.228Z,15.70
2023-04-24T05:08:58.060Z,15.60
2023-04-24T05:11:01.411Z,15.60
2023-04-24T05:13:05.980Z,15.60
2023-04-24T05:15:09.756Z,15.70
2023-04-24T05:17:12.689Z,15.90
2023-04-24T05:19:15.780Z,15.80
2023-04-24T05:21:18.586Z,15.80
2023-04-24T05:23:21.731Z,15.90
2023-04-24T05:25:24.776Z,15.90
2023-04-24T05:27:27.816Z,15.90
2023-04-24T05:29:32.650Z,16.00
2023-04-24T05:31:35.809Z,16.00
2023-04-24T05:33:38.674Z,16.10
2023-04-24T05:35:46.517Z,16.00
2023-04-24T05:37:49.555Z,16.10
2023-04-24T05:39:52.295Z,16.00
2023-04-24T05:41:55.037Z,15.90
2023-04-24T05:43:57.825Z,15.80
2023-04-24T05:46:02.144Z,15.80
2023-04-24T05:48:05.398Z,15.90
2023-04-24T05:50:10.042Z,15.90
2023-04-24T05:52:12.783Z,16.00
2023-04-24T05:54:15.630Z,15.90
2023-04-24T05:56:18.841Z,16.00
2023-04-24T05:58:21.667Z,16.10
2023-04-24T06:00:26.188Z,16.10
2023-04-24T06:02:33.702Z,16.20
2023-04-24T06:04:37.885Z,16.10
2023-04-24T06:06:44.501Z,16.10
2023-04-24T06:09:03.937Z,16.10
2023-04-24T06:11:08.005Z,16.10
2023-04-24T06:13:12.690Z,16.00
2023-04-24T06:15:18.946Z,16.00
2023-04-24T06:17:30.913Z,16.00
2023-04-24T06:19:36.790Z,15.80
2023-04-24T06:21:39.846Z,15.60
2023-04-24T06:23:42.946Z,15.50
2023-04-24T06:25:48.124Z,15.10
2023-04-24T06:27:58.073Z,15.30
2023-04-24T06:30:06.097Z,15.40
2023-04-24T06:32:12.687Z,15.40
2023-04-24T06:34:15.978Z,15.40
2023-04-24T06:37:10.669Z,15.50
2023-04-24T06:39:19.130Z,15.50
2023-04-24T06:41:22.192Z,15.90
2023-04-24T06:43:25.192Z,16.20
2023-04-24T06:45:28.308Z,16.40
2023-04-24T06:47:31.553Z,16.40
2023-04-24T06:53:24.678Z,16.40
2023-04-24T06:55:27.688Z,16.50
2023-04-24T06:57:31.184Z,16.50
2023-04-24T06:59:34.811Z,16.50
2023-04-24T07:01:37.883Z,16.70
2023-04-24T07:03:40.882Z,16.90
2023-04-24T07:05:43.829Z,17.10
2023-04-24T07:07:48.478Z,17.10
2023-04-24T07:09:51.912Z,17.20
2023-04-24T07:11:55.595Z,17.30
2023-04-24T07:13:58.358Z,17.40
2023-04-24T07:16:01.633Z,17.50
2023-04-24T07:18:05.964Z,17.60
2023-04-24T07:20:10.455Z,17.70
2023-04-24T07:22:18.156Z,17.90
2023-04-24T07:24:23.032Z,17.80
2023-04-24T07:26:27.659Z,17.30
2023-04-24T07:28:32.049Z,16.70
2023-04-24T07:30:38.335Z,16.60
2023-04-24T07:32:41.193Z,16.70
2023-04-24T07:34:44.347Z,16.90
2023-04-24T07:36:48.308Z,16.90
2023-04-24T07:38:51.169Z,17.10
2023-04-24T07:40:55.394Z,17.30
2023-04-24T07:42:58.108Z,17.60
2023-04-24T07:45:03.529Z,17.70
2023-04-24T07:47:06.683Z,17.80
2023-04-24T07:49:13.781Z,17.90
2023-04-24T07:51:17.546Z,18.00
2023-04-24T07:53:22.392Z,18.20
2023-04-24T07:55:28.073Z,18.30
2023-04-24T07:57:32.607Z,18.30
2023-04-24T07:59:35.526Z,18.50
2023-04-24T08:01:38.627Z,18.50
2023-04-24T08:03:41.778Z,18.60
2023-04-24T08:05:45.160Z,18.60
2023-04-24T08:07:49.670Z,18.60
2023-04-24T08:09:53.127Z,18.60
2023-04-24T08:11:55.956Z,18.60
2023-04-24T08:14:00.842Z,18.70
2023-04-24T08:16:03.730Z,19.00
2023-04-24T08:18:07.165Z,18.90
2023-04-24T08:20:14.528Z,18.80
2023-04-24T08:22:17.793Z,18.00
2023-04-24T08:24:20.764Z,18.10
2023-04-24T08:26:23.642Z,17.90
2023-04-24T08:28:27.688Z,17.70
2023-04-24T08:30:32.596Z,17.10
2023-04-24T08:32:35.703Z,17.10
2023-04-24T08:34:38.530Z,17.20
2023-04-24T08:36:47.155Z,17.10
2023-04-24T08:38:50.409Z,17.50
2023-04-24T08:40:53.644Z,17.60
2023-04-24T08:42:57.315Z,18.00
2023-04-24T08:45:00.546Z,17.40
2023-04-24T08:47:06.262Z,17.60
2023-04-24T08:49:09.026Z,17.60
2023-04-24T08:51:12.011Z,17.80
2023-04-24T08:53:14.944Z,17.80
2023-04-24T08:55:19.092Z,17.40
2023-04-24T08:57:22.096Z,17.30
2023-04-24T08:59:25.452Z,17.40
2023-04-24T09:01:29.927Z,17.70
2023-04-24T09:03:40.459Z,17.70
2023-04-24T09:05:46.725Z,17.60
2023-04-24T09:07:56.196Z,17.50
2023-04-24T09:09:59.108Z,17.30
2023-04-24T09:12:03.254Z,17.30
2023-04-24T09:14:06.385Z,17.70
2023-04-24T09:16:09.259Z,17.90
2023-04-24T09:18:12.371Z,17.90
2023-04-24T09:20:16.624Z,17.90
2023-04-24T09:22:19.610Z,17.80
2023-04-24T09:24:24.315Z,18.20
2023-04-24T09:26:27.875Z,18.30
2023-04-24T09:28:34.232Z,18.30
2023-04-24T09:30:37.085Z,18.30
2023-04-24T09:32:39.982Z,18.50
2023-04-24T09:34:44.953Z,18.80
2023-04-24T09:36:49.064Z,19.00
2023-04-24T09:38:59.586Z,18.60
2023-04-24T09:41:04.751Z,17.80
2023-04-24T09:43:13.456Z,18.00
2023-04-24T09:45:16.496Z,18.20
2023-04-24T09:47:19.377Z,18.60
2023-04-24T09:49:25.732Z,18.90
2023-04-24T09:51:37.996Z,18.80
2023-04-24T09:53:47.220Z,18.90
2023-04-24T09:55:51.669Z,18.60
2023-04-24T09:57:56.023Z,18.10
2023-04-24T10:00:01.310Z,18.20
2023-04-24T10:02:07.373Z,18.60
2023-04-24T10:04:18.207Z,18.50
2023-04-24T10:06:21.388Z,17.80
2023-04-24T10:08:24.240Z,17.90
2023-04-24T10:10:28.738Z,18.10
2023-04-24T10:12:32.672Z,18.30
2023-04-24T10:14:35.622Z,18.30
2023-04-24T10:16:38.869Z,18.30
2023-04-24T10:18:41.937Z,18.30
2023-04-24T10:20:44.707Z,18.40
2023-04-24T10:22:50.891Z,18.40
2023-04-24T10:24:54.671Z,18.30
2023-04-24T10:26:59.820Z,18.40
2023-04-24T10:29:04.057Z,18.50
2023-04-24T10:31:07.147Z,18.60
2023-04-24T10:33:10.736Z,18.80
2023-04-24T10:35:15.821Z,18.90
2023-04-24T10:37:18.782Z,19.00
2023-04-24T10:39:27.453Z,19.10
2023-04-24T10:41:32.787Z,19.10
2023-04-24T10:43:38.253Z,19.00
2023-04-24T10:45:43.856Z,18.90
2023-04-24T10:47:54.268Z,18.70
2023-04-24T10:50:01.693Z,18.50
2023-04-24T10:52:06.446Z,18.40
2023-04-24T10:54:24.583Z,18.20
2023-04-24T10:56:28.418Z,18.20
2023-04-24T10:58:41.932Z,18.30
2023-04-24T11:00:47.253Z,18.60
2023-04-24T11:02:52.028Z,18.50
2023-04-24T11:04:55.050Z,18.60
2023-04-24T11:06:58.012Z,18.80
2023-04-24T11:09:06.288Z,19.10
2023-04-24T11:11:13.397Z,19.20
2023-04-24T11:13:24.223Z,19.60
2023-04-24T11:15:30.856Z,19.60
2023-04-24T11:17:35.108Z,19.60
2023-04-24T11:19:38.088Z,19.60
2023-04-24T11:21:43.222Z,19.70
2023-04-24T11:23:49.249Z,19.90
2023-04-24T11:26:12.627Z,20.00
2023-04-24T11:28:18.180Z,20.50
2023-04-24T11:30:22.408Z,20.50
2023-04-24T11:32:30.397Z,20.40
2023-04-24T11:34:37.024Z,20.30
2023-04-24T11:36:41.326Z,20.10
2023-04-24T11:38:45.286Z,20.10
2023-04-24T11:40:50.819Z,20.20
2023-04-24T11:42:56.336Z,20.30
2023-04-24T11:45:01.342Z,20.10
2023-04-24T11:47:04.438Z,19.70
2023-04-24T11:49:08.568Z,19.70
2023-04-24T11:51:12.402Z,19.70
2023-04-24T11:53:15.405Z,19.40
2023-04-24T11:55:29.473Z,19.10
2023-04-24T11:57:34.763Z,18.80
2023-04-24T11:59:38.972Z,18.30
2023-04-24T12:01:48.782Z,18.10
2023-04-24T12:03:53.316Z,17.40
2023-04-24T12:06:09.029Z,17.50
2023-04-24T12:08:12.677Z,17.60
2023-04-24T12:10:15.715Z,18.10
2023-04-24T12:12:19.818Z,18.40
2023-04-24T12:14:22.623Z,18.20
2023-04-24T12:16:28.282Z,18.20
2023-04-24T12:18:31.473Z,17.70
2023-04-24T12:20:37.443Z,17.60
2023-04-24T12:22:48.599Z,17.60
2023-04-24T12:25:02.486Z,16.90
2023-04-24T12:27:05.339Z,16.50
2023-04-24T12:29:08.974Z,16.50
2023-04-24T12:31:12.096Z,16.60
2023-04-24T12:36:33.469Z,17.40
2023-04-24T12:38:42.048Z,17.40
2023-04-24T12:40:46.011Z,17.50
2023-04-24T12:42:50.426Z,17.70
2023-04-24T12:44:58.833Z,17.90
2023-04-24T12:47:01.949Z,17.90
2023-04-24T12:49:04.880Z,17.50
2023-04-24T12:51:07.980Z,16.90
2023-04-24T12:53:11.348Z,16.50
2023-04-24T12:55:15.575Z,16.60
2023-04-24T12:57:20.839Z,16.80
2023-04-24T12:59:24.866Z,16.70
2023-04-24T13:01:29.050Z,17.10
2023-04-24T13:03:32.282Z,17.30
2023-04-24T13:05:35.328Z,17.00
2023-04-24T13:07:38.362Z,16.80
2023-04-24T13:09:41.960Z,16.50
2023-04-24T13:11:46.464Z,16.10
2023-04-24T13:13:53.185Z,16.00
2023-04-24T13:15:57.919Z,16.10
2023-04-24T13:18:01.444Z,15.60
2023-04-24T13:20:04.872Z,15.70
2023-04-24T13:22:08.094Z,16.20
2023-04-24T13:24:12.018Z,16.70
2023-04-24T13:26:14.935Z,17.00
2023-04-24T13:28:19.047Z,16.70
2023-04-24T13:30:22.409Z,16.70
2023-04-24T13:32:26.258Z,16.20
2023-04-24T13:34:29.410Z,15.60
2023-04-24T13:36:32.645Z,15.30
2023-04-24T13:38:38.071Z,15.40
2023-04-24T13:40:46.829Z,15.10
2023-04-24T13:42:49.748Z,15.20
2023-04-24T13:44:54.963Z,15.40
2023-04-24T13:46:58.541Z,15.40
2023-04-24T13:49:01.579Z,14.80
2023-04-24T13:51:04.714Z,14.30
2023-04-24T13:53:07.444Z,14.90
2023-04-24T13:55:10.498Z,14.00
2023-04-24T13:57:13.395Z,14.60
2023-04-24T13:59:16.192Z,13.90
2023-04-24T14:01:20.315Z,14.40
2023-04-24T14:03:25.738Z,14.20
2023-04-24T14:05:28.576Z,13.80
2023-04-24T14:07:31.552Z,13.90
2023-04-24T14:09:34.388Z,14.80
2023-04-24T14:11:37.552Z,14.70
2023-04-24T14:13:40.819Z,14.20
2023-04-24T14:15:43.638Z,14.30
2023-04-24T14:17:48.294Z,15.00
2023-04-24T14:19:54.099Z,15.00
2023-04-24T14:21:59.289Z,14.90
2023-04-24T14:24:02.028Z,15.70
2023-04-24T14:26:04.808Z,15.30
2023-04-24T14:28:10.830Z,15.40
2023-04-24T14:30:14.646Z,15.60
2023-04-24T14:32:17.425Z,15.70
2023-04-24T14:34:21.516Z,15.70
2023-04-24T14:36:24.315Z,15.40
2023-04-24T14:38:27.641Z,15.30
2023-04-24T14:40:58.333Z,14.00
2023-04-24T14:42:53.657Z,14.00
2023-04-24T14:44:57.509Z,14.20
2023-04-24T14:47:01.162Z,14.20
2023-04-24T14:49:04.596Z,14.20
2023-04-24T14:51:09.375Z,14.10
2023-04-24T14:53:12.145Z,14.10
2023-04-24T14:55:15.399Z,14.20
2023-04-24T14:57:18.480Z,14.20
2023-04-24T14:59:21.325Z,14.10
2023-04-24T15:01:25.043Z,14.50
2023-04-24T15:03:29.162Z,14.80
2023-04-24T15:05:32.640Z,14.50
2023-04-24T15:07:37.722Z,14.60
2023-04-24T15:09:40.827Z,14.30
2023-04-24T15:11:43.725Z,14.30
2023-04-24T15:13:47.209Z,14.20
2023-04-24T15:15:50.560Z,14.20
2023-04-24T15:17:56.659Z,14.40
2023-04-24T15:19:59.562Z,13.90
2023-04-24T15:22:02.631Z,13.80
2023-04-24T15:24:07.079Z,13.70
2023-04-24T15:26:09.867Z,13.10
2023-04-24T15:28:12.779Z,13.50
2023-04-24T15:30:16.182Z,13.50
2023-04-24T15:32:19.062Z,13.50
2023-04-24T15:34:22.054Z,13.30
2023-04-24T15:36:24.902Z,13.60
2023-04-24T15:38:27.987Z,13.60
2023-04-24T15:40:32.348Z,13.50
2023-04-24T15:42:36.799Z,13.20
2023-04-24T15:44:39.665Z,13.40
2023-04-24T15:46:42.463Z,13.60
2023-04-24T15:48:45.609Z,13.30
2023-04-24T15:50:48.507Z,13.70
2023-04-24T15:52:53.956Z,14.00
2023-04-24T15:54:56.912Z,14.10
2023-04-24T15:57:01.951Z,14.40
2023-04-24T15:59:04.961Z,14.20
2023-04-24T16:01:07.955Z,14.30
2023-04-24T16:03:11.073Z,14.50
2023-04-24T16:05:13.915Z,14.60
2023-04-24T16:07:18.086Z,14.50
2023-04-24T16:09:21.094Z,14.50
2023-04-24T16:11:23.931Z,14.10
2023-04-24T16:13:29.088Z,13.90
2023-04-24T16:15:32.019Z,13.70
2023-04-24T16:17:34.770Z,13.90
2023-04-24T16:19:37.684Z,14.00
2023-04-24T16:21:40.519Z,14.80
2023-04-24T16:23:43.423Z,14.50
2023-04-24T16:25:48.364Z,14.60
2023-04-24T16:27:52.661Z,14.20
2023-04-24T16:29:57.303Z,13.80
2023-04-24T16:32:00.248Z,13.70
2023-04-24T16:34:02.942Z,13.80
2023-04-24T16:36:07.130Z,13.80
2023-04-24T16:38:11.343Z,13.40
2023-04-24T16:40:14.695Z,13.40
2023-04-24T16:42:17.554Z,13.10
2023-04-24T16:44:25.292Z,12.80
2023-04-24T16:46:29.439Z,12.60
2023-04-24T16:48:35.060Z,12.60
2023-04-24T16:50:38.149Z,12.70
2023-04-24T16:52:41.251Z,12.60
2023-04-24T16:54:44.184Z,12.70
2023-04-24T16:56:47.053Z,12.90
2023-04-24T16:58:50.143Z,13.20
2023-04-24T17:00:53.305Z,13.30
2023-04-24T17:02:57.547Z,13.10
2023-04-24T17:05:00.647Z,13.30
2023-04-24T17:07:03.614Z,13.30
2023-04-24T17:09:06.470Z,12.70
2023-04-24T17:11:09.283Z,12.70
2023-04-24T17:13:14.441Z,12.90
2023-04-24T17:15:17.560Z,12.80
2023-04-24T17:17:23.144Z,12.80
2023-04-24T17:19:27.340Z,12.70
2023-04-24T17:21:30.303Z,12.20
2023-04-24T17:23:33.047Z,12.30
2023-04-24T17:25:35.763Z,12.30
2023-04-24T17:27:38.576Z,12.50
2023-04-24T17:29:42.180Z,12.40
2023-04-24T17:31:45.122Z,12.80
2023-04-24T17:33:47.859Z,12.70
2023-04-24T17:35:51.993Z,12.60
2023-04-24T17:37:54.724Z,12.40
2023-04-24T17:39:58.548Z,12.60
2023-04-24T17:42:02.208Z,12.20
2023-04-24T17:44:05.059Z,12.10
2023-04-24T17:46:08.505Z,12.30
2023-04-24T17:48:11.438Z,12.40
2023-04-24T17:50:14.709Z,12.30
2023-04-24T17:52:18.895Z,12.40
2023-04-24T17:54:21.739Z,12.50
2023-04-24T17:56:25.794Z,12.60
2023-04-24T17:58:28.769Z,12.60
2023-04-24T18:00:31.867Z,12.70
2023-04-24T18:02:36.343Z,12.70
2023-04-24T18:04:40.623Z,12.60
2023-04-24T18:06:43.519Z,12.60
2023-04-24T18:08:47.824Z,12.70
2023-04-24T18:10:50.762Z,12.50
2023-04-24T18:12:53.881Z,12.00
2023-04-24T18:15:12.480Z,12.40
2023-04-24T18:17:16.219Z,11.80
2023-04-24T18:19:18.974Z,12.30
2023-04-24T18:21:21.784Z,12.30
2023-04-24T18:23:24.749Z,12.40
2023-04-24T18:25:28.870Z,12.40
2023-04-24T18:27:31.837Z,12.40
2023-04-24T18:29:34.566Z,12.40
2023-04-24T18:31:38.703Z,12.40
2023-04-24T18:33:41.499Z,12.20
2023-04-24T18:35:44.334Z,12.20
2023-04-24T18:37:47.176Z,12.30
2023-04-24T18:39:50.635Z,12.20
2023-04-24T18:41:55.042Z,12.00
2023-04-24T18:43:59.476Z,11.90
2023-04-24T18:46:02.333Z,11.70
2023-04-24T18:48:05.509Z,11.50
2023-04-24T18:50:09.503Z,11.50
2023-04-24T18:52:12.804Z,11.60
2023-04-24T18:54:16.709Z,11.60
2023-04-24T18:56:20.037Z,11.60
2023-04-24T18:58:24.174Z,11.60
2023-04-24T19:00:27.733Z,11.70
2023-04-24T19:02:30.835Z,11.70
2023-04-24T19:04:33.725Z,11.80
2023-04-24T19:06:36.636Z,11.70
2023-04-24T19:08:42.532Z,11.70
2023-04-24T19:10:45.354Z,11.60
2023-04-24T19:12:49.483Z,11.70
2023-04-24T19:14:56.199Z,11.50
2023-04-24T19:16:59.030Z,11.50
2023-04-24T19:19:03.704Z,11.80
2023-04-24T19:21:08.472Z,11.60
2023-04-24T19:23:11.465Z,11.50
2023-04-24T19:25:15.085Z,11.60
2023-04-24T19:27:18.160Z,11.70
2023-04-24T19:29:20.969Z,11.50
2023-04-24T19:31:25.360Z,11.40
2023-04-24T19:33:29.666Z,11.20
2023-04-24T19:35:34.563Z,11.20
2023-04-24T19:37:40.311Z,11.20
2023-04-24T19:39:47.071Z,11.40
2023-04-24T19:41:51.819Z,11.40
2023-04-24T19:43:56.918Z,11.20
2023-04-24T19:45:59.976Z,11.40
2023-04-24T19:48:06.335Z,11.40
2023-04-24T19:50:10.315Z,11.30
2023-04-24T19:52:13.513Z,11.40
2023-04-24T19:54:17.100Z,11.30
2023-04-24T19:56:24.810Z,11.40
2023-04-24T19:58:30.424Z,11.40
2023-04-24T20:00:35.415Z,11.20
2023-04-24T20:02:38.697Z,11.20
2023-04-24T20:04:43.304Z,11.50
2023-04-24T20:06:46.224Z,11.50
2023-04-24T20:08:49.352Z,11.50
2023-04-24T20:10:54.234Z,11.60
2023-04-24T20:12:57.413Z,11.70
2023-04-24T20:15:00.851Z,11.60
2023-04-24T20:17:03.979Z,11.40
2023-04-24T20:19:06.821Z,11.40
2023-04-24T20:21:11.293Z,11.60
2023-04-24T20:23:14.418Z,11.80
2023-04-24T20:25:17.936Z,11.90
2023-04-24T20:27:20.926Z,11.50
2023-04-24T20:29:26.005Z,11.50
2023-04-24T20:31:28.973Z,11.40
2023-04-24T20:33:32.336Z,11.50
2023-04-24T20:35:35.300Z,11.20
2023-04-24T20:37:39.935Z,11.20
2023-04-24T20:39:44.494Z,11.20
2023-04-24T20:41:47.542Z,11.20
2023-04-24T20:43:50.704Z,11.30
2023-04-24T20:45:53.540Z,11.40
2023-04-24T20:47:56.406Z,11.60
2023-04-24T20:50:02.173Z,11.30
2023-04-24T20:52:04.955Z,11.40
2023-04-24T20:54:09.237Z,11.50
2023-04-24T20:56:12.380Z,11.50
2023-04-24T20:58:15.450Z,11.50
2023-04-24T21:00:18.347Z,11.60
2023-04-24T21:02:21.375Z,11.70
2023-04-24T21:04:24.353Z,11.60
2023-04-24T21:06:27.599Z,11.70
2023-04-24T21:08:30.342Z,11.60
2023-04-24T21:10:34.409Z,11.30
2023-04-24T21:12:38.202Z,11.30
2023-04-24T21:14:41.101Z,11.30
2023-04-24T21:16:43.903Z,11.40
2023-04-24T21:18:46.961Z,11.50
2023-04-24T21:20:50.019Z,11.40
2023-04-24T21:22:52.766Z,11.50
2023-04-24T21:24:55.542Z,11.50
2023-04-24T21:26:59.742Z,11.20
2023-04-24T21:29:04.802Z,11.30
2023-04-24T21:31:07.694Z,11.00
2023-04-24T21:33:10.852Z,10.90
2023-04-24T21:35:13.718Z,11.00
2023-04-24T21:37:16.478Z,11.10
2023-04-24T21:39:19.385Z,11.20
2023-04-24T21:41:22.804Z,11.10
2023-04-24T21:43:37.255Z,10.80
2023-04-24T21:45:44.721Z,11.00
2023-04-24T21:47:47.825Z,10.90
2023-04-24T21:49:50.917Z,11.10
2023-04-24T21:51:53.634Z,11.20
2023-04-24T21:53:56.612Z,11.30
2023-04-24T21:55:59.499Z,11.30
2023-04-24T21:58:02.438Z,11.30
2023-04-24T22:00:11.378Z,11.20
2023-04-24T22:02:15.265Z,11.30
2023-04-24T22:04:18.249Z,11.00
2023-04-24T22:06:21.189Z,10.90
2023-04-24T22:08:23.989Z,11.00
2023-04-24T22:10:27.018Z,10.90
2023-04-24T22:12:30.000Z,11.10
2023-04-24T22:14:32.807Z,11.10
2023-04-24T22:16:37.118Z,10.90
2023-04-24T22:18:47.048Z,10.70
2023-04-24T22:20:50.644Z,10.80
2023-04-24T22:22:53.503Z,10.70
2023-04-24T22:24:56.862Z,10.80
2023-04-24T22:26:59.819Z,10.60
2023-04-24T22:29:02.923Z,10.80
2023-04-24T22:31:05.844Z,10.70
2023-04-24T22:33:10.019Z,10.60
2023-04-24T22:35:13.088Z,10.40
2023-04-24T22:37:16.034Z,10.20
2023-04-24T22:39:19.700Z,10.20
2023-04-24T22:41:23.303Z,10.00
2023-04-24T22:43:26.242Z,10.00
2023-04-24T22:45:31.148Z,9.90
2023-04-24T22:47:34.738Z,10.10
2023-04-24T22:49:39.784Z,9.90
2023-04-24T22:51:42.657Z,10.00
2023-04-24T22:53:45.468Z,9.80
2023-04-24T22:55:49.774Z,9.70
2023-04-24T22:57:52.663Z,9.90
2023-04-24T22:59:58.346Z,10.10
2023-04-24T23:02:01.706Z,10.10
2023-04-24T23:04:05.173Z,10.10
2023-04-24T23:06:09.896Z,9.90
2023-04-24T23:08:12.735Z,10.00
2023-04-24T23:10:15.729Z,10.00
2023-04-24T23:12:18.595Z,10.10
2023-04-24T23:14:21.815Z,10.10
2023-04-24T23:16:24.595Z,9.80
2023-04-24T23:18:27.426Z,9.90
2023-04-24T23:20:30.498Z,9.60
2023-04-24T23:22:35.200Z,9.70
2023-04-24T23:24:38.367Z,9.50
2023-04-24T23:26:41.324Z,9.60
2023-04-24T23:28:44.098Z,9.60
2023-04-24T23:30:47.198Z,9.60
2023-04-24T23:32:50.016Z,9.70
2023-04-24T23:34:52.789Z,9.70
2023-04-24T23:36:56.313Z,9.60
2023-04-24T23:39:03.177Z,9.70
2023-04-24T23:41:06.220Z,9.60
2023-04-24T23:43:09.050Z,9.60
2023-04-24T23:45:12.419Z,9.70
2023-04-24T23:47:15.219Z,9.60
2023-04-24T23:49:17.986Z,9.40
2023-04-24T23:51:20.770Z,9.50
2023-04-24T23:53:23.976Z,9.50
2023-04-24T23:55:29.760Z,9.40
2023-04-24T23:57:32.576Z,9.50
2023-04-24T23:59:35.796Z,9.60
